Time;durP1;ratioP1;P1;durP2;ratioP2;P2;SDS_P1;SDS_P2;PMS_P1;PMS_P2;Temp;Humidity;BMP_temperature;BMP_pressure;BME280_temperature;BME280_humidity;BME280_pressure;Samples;Min_cycle;Max_cycle;Signal;HPM_P1;HPM_P2
2022/11/17 00:01:42;;;;;;;;;;;;;;;9.07;100.00;98575.06;5035158;28;19917;-88
2022/11/17 00:04:07;;;;;;;;;;;;;;;9.08;100.00;98579.34;5034895;28;20228;-88
2022/11/17 00:06:34;;;;;;;;;;;;;;;9.10;100.00;98574.03;5065720;28;20104;-88
2022/11/17 00:08:59;;;;;;;;;;;;;;;9.12;100.00;98566.91;5055494;28;20101;-88
2022/11/17 00:11:24;;;;;;;;;;;;;;;9.12;100.00;98559.91;5056546;28;19917;-88
2022/11/17 00:16:33;;;;;;;;;;;;;;;9.15;100.00;98557.09;5056175;28;20230;-88
2022/11/17 00:21:43;;;;;;;;;;;;;;;9.17;100.00;98536.09;5056474;28;20003;-88
2022/11/17 00:24:08;;;;;;;;;;;;;;;9.18;100.00;98550.78;5056836;28;19921;-87
2022/11/17 00:26:34;;;;;;;;;;;;;;;9.19;100.00;98531.59;5057077;28;20377;-88
2022/11/17 00:29:03;;;;;;;;;;;;;;;9.21;100.00;98533.13;5036438;28;19917;-88
2022/11/17 00:34:14;;;;;;;;;;;;;;;9.25;100.00;98514.63;5035270;28;19935;-88
2022/11/17 00:36:44;;;;;;;;;;;;;;;9.25;100.00;98483.31;5051066;28;20289;-88
2022/11/17 00:39:09;;;;;;;;;;;;;;;9.24;100.00;98472.03;5056577;28;20219;-88
2022/11/17 00:41:35;;;;;;;;;;;;;;;9.24;100.00;98490.31;5056800;28;19947;-88
2022/11/17 00:44:00;;;;;;;;;;;;;;;9.27;100.00;98507.53;5056416;28;19952;-88
2022/11/17 00:46:26;;;;;;;;;;;;;;;9.28;100.00;98502.19;5056607;28;19924;-88
2022/11/17 00:48:51;;;;;;;;;;;;;;;9.30;100.00;98489.84;5055558;28;19925;-88
2022/11/17 00:51:16;;;;;;;;;;;;;;;9.32;100.00;98479.28;5056145;28;19928;-88
2022/11/17 00:53:42;;;;;;;;;;;;;;;9.34;100.00;98477.41;5056454;28;20222;-88
2022/11/17 00:56:07;;;;;;;;;;;;;;;9.35;100.00;98461.63;5038625;28;19913;-88
2022/11/17 00:58:34;;;;;;;;;;;;;;;9.35;100.00;98460.75;5055535;28;19913;-88
2022/11/17 01:00:59;;;;;;;;;;;;;;;9.37;100.00;98461.50;5054772;28;20210;-88
2022/11/17 01:03:25;;;;;;;;;;;;;;;9.38;100.00;98465.78;5058702;28;19908;-88
2022/11/17 01:05:50;;;;;;;;;;;;;;;9.40;100.00;98448.19;5058646;28;20195;-87
2022/11/17 01:08:15;;;;;;;;;;;;;;;9.41;100.00;98462.94;5058775;28;20212;-88
2022/11/17 01:10:40;;;;;;;;;;;;;;;9.41;100.00;98445.47;5042276;28;20101;-88
2022/11/17 01:13:06;;;;;;;;;;;;;;;9.43;100.00;98457.63;5058371;28;20135;-88
2022/11/17 01:15:32;;;;;;;;;;;;;;;9.44;100.00;98454.03;5059768;28;20143;-88
2022/11/17 01:17:57;;;;;;;;;;;;;;;9.46;100.00;98454.75;5058776;28;19917;-88
2022/11/17 01:20:23;;;;;;;;;;;;;;;9.46;100.00;98447.78;5059532;28;19917;-88
2022/11/17 01:22:48;;;;;;;;;;;;;;;9.48;100.00;98442.41;5042034;28;20011;-88
2022/11/17 01:25:13;;;;;;;;;;;;;;;9.49;100.00;98451.91;5058450;28;19974;-88
2022/11/17 01:27:39;;;;;;;;;;;;;;;9.50;100.00;98454.44;5041703;28;20015;-88
2022/11/17 01:30:04;;;;;;;;;;;;;;;9.51;100.00;98442.19;5058113;28;20199;-88
2022/11/17 01:32:30;;;;;;;;;;;;;;;9.53;100.00;98450.75;5059172;28;20230;-88
2022/11/17 01:34:55;;;;;;;;;;;;;;;9.54;100.00;98444.59;5059393;28;19979;-88
2022/11/17 01:37:20;;;;;;;;;;;;;;;9.55;100.00;98441.00;5058027;28;19929;-88
2022/11/17 01:39:46;;;;;;;;;;;;;;;9.56;100.00;98433.06;5058153;28;19968;-88
2022/11/17 01:42:13;;;;;;;;;;;;;;;9.58;100.00;98431.16;5058975;28;20168;-88
2022/11/17 01:44:43;;;;;;;;;;;;;;;9.59;100.00;98421.56;5059310;28;19916;-88
2022/11/17 01:47:13;;;;;;;;;;;;;;;9.60;100.00;98412.75;5057570;28;19920;-88
2022/11/17 01:49:39;;;;;;;;;;;;;;;9.62;100.00;98413.47;5059252;28;20211;-88
2022/11/17 01:52:06;;;;;;;;;;;;;;;9.64;100.00;98410.75;5040925;28;20011;-88
2022/11/17 01:54:33;;;;;;;;;;;;;;;9.64;100.00;98406.38;5058879;28;19916;-88
2022/11/17 01:57:01;;;;;;;;;;;;;;;9.65;100.00;98401.97;5059144;28;19921;-88
2022/11/17 01:59:27;;;;;;;;;;;;;;;9.65;100.00;98394.94;5059280;28;19983;-88
2022/11/17 02:05:20;;;;;;;;;;;;;;;9.68;100.00;98384.28;5057117;28;20080;-88
2022/11/17 02:07:48;;;;;;;;;;;;;;;9.69;100.00;98378.06;5046017;28;20309;-88
2022/11/17 02:10:13;;;;;;;;;;;;;;;9.71;100.00;98385.81;5053897;28;20273;-88
2022/11/17 02:12:38;;;;;;;;;;;;;;;9.71;100.00;98380.59;5038330;28;19921;-88
2022/11/17 02:15:04;;;;;;;;;;;;;;;9.71;100.00;98373.56;5058372;28;19917;-88
2022/11/17 02:17:40;;;;;;;;;;;;;;;9.72;100.00;98375.25;5058434;28;20123;-88
2022/11/17 02:20:11;;;;;;;;;;;;;;;9.73;100.00;98376.06;5057728;28;20222;-88
2022/11/17 02:22:54;;;;;;;;;;;;;;;9.73;100.00;98374.31;5055136;28;19921;-88
2022/11/17 02:25:38;;;;;;;;;;;;;;;9.74;100.00;98369.91;5052108;28;20128;-88
2022/11/17 02:28:04;;;;;;;;;;;;;;;9.74;100.00;98370.72;5047570;28;19963;-88
2022/11/17 02:30:34;;;;;;;;;;;;;;;9.75;100.00;98369.78;5063017;28;19971;-88
2022/11/17 02:33:02;;;;;;;;;;;;;;;9.76;100.00;98370.63;5055173;28;19921;-88
2022/11/17 02:35:39;;;;;;;;;;;;;;;9.77;100.00;98365.28;5046635;28;19928;-88
2022/11/17 02:38:16;;;;;;;;;;;;;;;9.76;100.00;98350.53;5058109;28;19908;-88
2022/11/17 02:40:44;;;;;;;;;;;;;;;9.77;100.00;98352.19;5044145;28;19915;-88
2022/11/17 02:45:57;;;;;;;;;;;;;;;9.77;100.00;98349.59;5038316;28;19915;-88
2022/11/17 02:48:31;;;;;;;;;;;;;;;9.77;100.00;98344.38;5037493;28;19913;-88
2022/11/17 02:50:57;;;;;;;;;;;;;;;9.78;100.00;98347.78;5038137;28;19909;-88
2022/11/17 02:53:24;;;;;;;;;;;;;;;9.79;100.00;98342.47;5056171;28;20211;-88
2022/11/17 02:55:50;;;;;;;;;;;;;;;9.82;100.00;98348.41;5073271;28;19915;-88
2022/11/17 02:58:16;;;;;;;;;;;;;;;9.82;100.00;98344.00;5073198;28;19917;-88
2022/11/17 03:00:48;;;;;;;;;;;;;;;9.83;100.00;98342.22;5056584;28;20246;-88
2022/11/17 03:03:19;;;;;;;;;;;;;;;9.85;100.00;98335.09;5057904;28;19924;-88
2022/11/17 03:06:07;;;;;;;;;;;;;;;9.85;100.00;98325.47;5056448;28;19917;-88
2022/11/17 03:08:46;;;;;;;;;;;;;;;9.86;100.00;98314.06;5057443;28;20157;-88
2022/11/17 03:11:12;;;;;;;;;;;;;;;9.86;100.00;98316.69;5057426;28;19917;-88
2022/11/17 03:13:58;;;;;;;;;;;;;;;9.86;100.00;98308.00;5057885;28;19916;-88
2022/11/17 03:16:34;;;;;;;;;;;;;;;9.88;100.00;98300.88;5057540;28;19917;-88
2022/11/17 03:19:02;;;;;;;;;;;;;;;9.88;100.00;98298.28;5057303;28;19972;-88
2022/11/17 03:21:33;;;;;;;;;;;;;;;9.88;100.00;98296.47;5056196;28;20150;-88
2022/11/17 03:24:03;;;;;;;;;;;;;;;9.88;100.00;98293.03;5056996;28;20207;-88
2022/11/17 03:26:33;;;;;;;;;;;;;;;9.88;100.00;98287.81;5055151;28;19920;-88
2022/11/17 03:29:01;;;;;;;;;;;;;;;9.88;100.00;98286.03;5057244;28;19917;-88
2022/11/17 03:31:27;;;;;;;;;;;;;;;9.89;100.00;98277.22;5057209;28;19984;-88
2022/11/17 03:33:53;;;;;;;;;;;;;;;9.90;100.00;98272.84;5057200;28;19912;-88
2022/11/17 03:36:25;;;;;;;;;;;;;;;9.89;100.00;98266.75;5051696;28;20326;-88
2022/11/17 03:38:56;;;;;;;;;;;;;;;9.89;100.00;98268.53;5045659;28;19921;-88
2022/11/17 03:41:22;;;;;;;;;;;;;;;9.88;100.00;98259.88;5036976;28;19917;-88
2022/11/17 03:43:50;;;;;;;;;;;;;;;9.88;100.00;98259.88;5037468;28;19931;-88
2022/11/17 03:46:17;;;;;;;;;;;;;;;9.88;100.00;98254.66;5039915;28;19913;-88
2022/11/17 03:48:49;;;;;;;;;;;;;;;9.88;100.00;98262.50;5057127;28;19917;-88
2022/11/17 03:51:17;;;;;;;;;;;;;;;9.90;100.00;98257.16;5051416;28;19913;-88
2022/11/17 03:53:43;;;;;;;;;;;;;;;9.90;100.00;98251.91;5045843;28;19943;-88
2022/11/17 03:56:13;;;;;;;;;;;;;;;9.90;100.00;98247.50;5052245;28;19924;-88
2022/11/17 03:58:44;;;;;;;;;;;;;;;9.92;100.00;98255.25;5055794;28;19915;-88
2022/11/17 04:01:10;;;;;;;;;;;;;;;9.92;100.00;98250.84;5055486;28;19955;-88
2022/11/17 04:03:36;;;;;;;;;;;;;;;9.94;100.00;98253.34;5056727;28;20093;-88
2022/11/17 04:06:02;;;;;;;;;;;;;;;9.95;100.00;98257.59;5072176;28;19909;-88
2022/11/17 04:08:29;;;;;;;;;;;;;;;9.96;100.00;98256.66;5056789;28;19921;-88
2022/11/17 04:16:22;;;;;;;;;;;;;;;9.97;100.00;98267.00;5036564;28;19940;-88
2022/11/17 04:18:47;;;;;;;;;;;;;;;9.98;100.00;98268.63;5035861;28;19917;-88
2022/11/17 04:21:13;;;;;;;;;;;;;;;9.99;100.00;98259.03;5035311;28;19924;-88
2022/11/17 04:23:38;;;;;;;;;;;;;;;9.99;100.00;98243.34;5036932;28;19921;-88
2022/11/17 04:28:48;;;;;;;;;;;;;;;9.99;100.00;98222.44;5036276;28;19963;-88
2022/11/17 04:31:21;;;;;;;;;;;;;;;9.98;100.00;98207.69;5036782;28;19917;-88
2022/11/17 04:33:51;;;;;;;;;;;;;;;9.98;100.00;98218.13;5035858;28;20258;-88
2022/11/17 04:36:18;;;;;;;;;;;;;;;9.97;100.00;98206.84;5048374;28;19995;-88
2022/11/17 04:38:44;;;;;;;;;;;;;;;9.97;100.00;98200.81;5061033;28;19920;-88
2022/11/17 04:43:55;;;;;;;;;;;;;;;9.95;100.00;98181.78;5060475;28;19962;-88
2022/11/17 04:46:20;;;;;;;;;;;;;;;9.94;100.00;98191.41;5059843;28;19940;-88
2022/11/17 04:48:46;;;;;;;;;;;;;;;9.94;100.00;98204.47;5060222;28;19970;-88
2022/11/17 04:51:12;;;;;;;;;;;;;;;9.95;100.00;98200.94;5075361;28;19979;-88
2022/11/17 04:53:37;;;;;;;;;;;;;;;9.96;100.00;98206.97;5050379;28;20163;-88
2022/11/17 04:56:02;;;;;;;;;;;;;;;9.97;100.00;98200.81;5041186;28;19921;-88
2022/11/17 04:58:28;;;;;;;;;;;;;;;9.97;100.00;98203.41;5053783;28;19947;-88
2022/11/17 05:00:53;;;;;;;;;;;;;;;9.97;100.00;98192.97;5055768;28;19939;-88
2022/11/17 05:03:19;;;;;;;;;;;;;;;9.97;100.00;98200.81;5040811;28;19917;-88
2022/11/17 05:05:45;;;;;;;;;;;;;;;9.97;100.00;98204.25;5063811;28;19917;-88
2022/11/17 05:08:10;;;;;;;;;;;;;;;9.98;100.00;98211.13;5043480;28;19917;-88
2022/11/17 05:13:20;;;;;;;;;;;;;;;10.02;100.00;98213.50;5059950;28;20163;-88
2022/11/17 05:18:29;;;;;;;;;;;;;;;10.04;100.00;98211.59;5059549;28;20018;-88
2022/11/17 05:21:00;;;;;;;;;;;;;;;10.04;100.00;98215.06;5059710;28;20196;-88
2022/11/17 05:26:09;;;;;;;;;;;;;;;10.07;100.00;98221.81;5039492;28;20239;-88
2022/11/17 05:28:35;;;;;;;;;;;;;;;10.08;100.00;98213.03;5039400;28;20003;-88
2022/11/17 05:31:00;;;;;;;;;;;;;;;10.08;100.00;98207.78;5054726;28;19917;-88
2022/11/17 05:33:25;;;;;;;;;;;;;;;10.08;100.00;98203.38;5038145;28;19920;-88
2022/11/17 05:35:51;;;;;;;;;;;;;;;10.09;100.00;98205.03;5062893;28;20101;-88
2022/11/17 05:38:16;;;;;;;;;;;;;;;10.09;100.00;98202.41;5041428;28;20162;-88
2022/11/17 05:40:41;;;;;;;;;;;;;;;10.10;100.00;98196.25;5059263;28;19953;-88
2022/11/17 05:43:07;;;;;;;;;;;;;;;10.10;100.00;98193.63;5041025;28;20220;-88
2022/11/17 05:45:32;;;;;;;;;;;;;;;10.11;100.00;98204.91;5057904;28;20256;-88
2022/11/17 05:47:57;;;;;;;;;;;;;;;10.12;100.00;98201.34;5058282;28;20007;-88
2022/11/17 05:50:22;;;;;;;;;;;;;;;10.12;100.00;98201.34;5057815;28;19921;-88
2022/11/17 05:52:48;;;;;;;;;;;;;;;10.13;100.00;98200.38;5059414;28;19924;-88
2022/11/17 05:55:13;;;;;;;;;;;;;;;10.13;100.00;98200.38;5058824;28;19976;-88
2022/11/17 05:57:38;;;;;;;;;;;;;;;10.13;100.00;98195.16;5059049;28;19921;-88
2022/11/17 06:00:04;;;;;;;;;;;;;;;10.14;100.00;98205.50;5057564;28;20212;-88
2022/11/17 06:02:42;;;;;;;;;;;;;;;10.15;100.00;98201.09;5057677;28;19909;-88
2022/11/17 06:05:08;;;;;;;;;;;;;;;10.14;100.00;98208.09;5058615;28;20177;-88
2022/11/17 06:07:34;;;;;;;;;;;;;;;10.16;100.00;98205.38;5058115;28;19932;-88
2022/11/17 06:10:00;;;;;;;;;;;;;;;10.17;100.00;98215.72;5056359;28;20232;-88
2022/11/17 06:12:25;;;;;;;;;;;;;;;10.16;100.00;98210.59;5049053;28;19924;-88
2022/11/17 06:14:50;;;;;;;;;;;;;;;10.17;100.00;98205.25;5039095;28;19936;-88
2022/11/17 06:17:24;;;;;;;;;;;;;;;10.17;100.00;98220.94;5051226;28;19925;-88
2022/11/17 06:20:01;;;;;;;;;;;;;;;10.17;100.00;98218.34;5058336;28;19919;-88
2022/11/17 06:22:28;;;;;;;;;;;;;;;10.17;100.00;98215.72;5053976;28;19921;-88
2022/11/17 06:24:53;;;;;;;;;;;;;;;10.18;100.00;98209.50;5042732;28;19963;-88
2022/11/17 06:27:19;;;;;;;;;;;;;;;10.18;100.00;98212.13;5039163;28;20208;-88
2022/11/17 06:29:45;;;;;;;;;;;;;;;10.18;100.00;98216.53;5058642;28;19909;-88
2022/11/17 06:32:14;;;;;;;;;;;;;;;10.18;100.00;98213.91;5073551;28;19916;-88
2022/11/17 06:34:41;;;;;;;;;;;;;;;10.19;100.00;98223.44;5058091;28;19924;-88
2022/11/17 06:37:06;;;;;;;;;;;;;;;10.18;100.00;98222.59;5057882;28;19925;-88
2022/11/17 06:39:31;;;;;;;;;;;;;;;10.19;100.00;98218.22;5046079;28;19913;-88
2022/11/17 06:41:56;;;;;;;;;;;;;;;10.19;100.00;98213.81;5045375;28;19992;-88
2022/11/17 06:44:22;;;;;;;;;;;;;;;10.21;100.00;98223.31;5040111;28;20051;-88
2022/11/17 06:46:47;;;;;;;;;;;;;;;10.19;100.00;98224.25;5040691;28;19921;-88
2022/11/17 06:49:12;;;;;;;;;;;;;;;10.20;100.00;98222.47;5039409;28;19917;-88
2022/11/17 06:51:38;;;;;;;;;;;;;;;10.19;100.00;98224.25;5056658;28;19924;-88
2022/11/17 06:54:04;;;;;;;;;;;;;;;10.21;100.00;98236.41;5062310;28;19917;-88
2022/11/17 06:56:29;;;;;;;;;;;;;;;10.19;100.00;98232.09;5057159;28;19917;-88
2022/11/17 06:58:55;;;;;;;;;;;;;;;10.20;100.00;98240.78;5057940;28;20124;-88
2022/11/17 07:01:20;;;;;;;;;;;;;;;10.20;100.00;98230.31;5072835;28;19916;-89
2022/11/17 07:03:45;;;;;;;;;;;;;;;10.21;100.00;98237.22;5057089;28;19920;-88
2022/11/17 07:06:11;;;;;;;;;;;;;;;10.19;100.00;98239.97;5052621;28;19912;-88
2022/11/17 07:08:36;;;;;;;;;;;;;;;10.21;100.00;98236.41;5057098;28;19936;-89
2022/11/17 07:11:06;;;;;;;;;;;;;;;10.20;100.00;98235.53;5053047;28;19912;-88
2022/11/17 07:13:32;;;;;;;;;;;;;;;10.19;100.00;98253.03;5047747;28;19909;-88
2022/11/17 07:16:03;;;;;;;;;;;;;;;10.19;100.00;98250.41;5059428;28;20128;-88
2022/11/17 07:18:29;;;;;;;;;;;;;;;10.19;100.00;98249.59;5048685;28;19921;-88
2022/11/17 07:20:54;;;;;;;;;;;;;;;10.19;100.00;98247.81;5046922;28;19923;-88
2022/11/17 07:23:19;;;;;;;;;;;;;;;10.19;100.00;98250.41;5047164;28;20427;-88
2022/11/17 07:25:45;;;;;;;;;;;;;;;10.19;100.00;98252.22;5046270;28;19925;-88
2022/11/17 07:28:10;;;;;;;;;;;;;;;10.19;100.00;98262.69;5044500;28;19930;-88
2022/11/17 07:30:43;;;;;;;;;;;;;;;10.18;100.00;98264.44;5025929;28;20342;-88
2022/11/17 07:33:08;;;;;;;;;;;;;;;10.18;100.00;98261.81;5036586;28;19924;-88
2022/11/17 07:35:34;;;;;;;;;;;;;;;10.17;100.00;98262.78;5048350;28;19924;-88
2022/11/17 07:38:00;;;;;;;;;;;;;;;10.17;100.00;98267.19;5055318;28;19921;-88
2022/11/17 07:40:26;;;;;;;;;;;;;;;10.15;100.00;98271.69;5046667;28;19913;-88
2022/11/17 07:42:51;;;;;;;;;;;;;;;10.14;100.00;98268.25;5044823;28;20018;-88
2022/11/17 07:45:16;;;;;;;;;;;;;;;10.14;100.00;98270.88;5039980;28;19947;-88
2022/11/17 07:47:42;;;;;;;;;;;;;;;10.15;100.00;98280.41;5034834;28;20422;-88
2022/11/17 07:50:07;;;;;;;;;;;;;;;10.15;100.00;98269.09;5038122;28;19925;-88
2022/11/17 07:52:33;;;;;;;;;;;;;;;10.14;100.00;98278.72;5062798;28;20112;-88
2022/11/17 07:54:58;;;;;;;;;;;;;;;10.14;100.00;98277.91;5043345;28;20127;-88
2022/11/17 07:57:24;;;;;;;;;;;;;;;10.15;100.00;98279.53;5044059;28;19925;-88
2022/11/17 07:59:49;;;;;;;;;;;;;;;10.16;100.00;98291.69;5043310;28;19992;-88
2022/11/17 08:02:15;;;;;;;;;;;;;;;10.16;100.00;98286.44;5041277;28;19917;-88
2022/11/17 08:04:40;;;;;;;;;;;;;;;10.13;100.00;98282.31;5044069;28;19925;-88
2022/11/17 08:07:05;;;;;;;;;;;;;;;10.14;100.00;98283.13;5053231;28;20130;-89
2022/11/17 08:09:30;;;;;;;;;;;;;;;10.12;100.00;98280.63;5049588;28;19959;-88
2022/11/17 08:11:57;;;;;;;;;;;;;;;10.12;100.00;98285.84;5039600;28;20381;-88
2022/11/17 08:14:22;;;;;;;;;;;;;;;10.11;100.00;98289.41;5051702;28;20258;-88
2022/11/17 08:16:48;;;;;;;;;;;;;;;10.12;100.00;98298.94;5053131;28;19925;-88
2022/11/17 08:19:13;;;;;;;;;;;;;;;10.12;100.00;98293.72;5038787;28;20238;-88
2022/11/17 08:21:39;;;;;;;;;;;;;;;10.12;100.00;98287.66;5052515;28;19929;-88
2022/11/17 08:24:05;;;;;;;;;;;;;;;10.11;100.00;98297.25;5063756;28;19920;-88
2022/11/17 08:26:31;;;;;;;;;;;;;;;10.11;100.00;98299.88;5051478;28;19916;-88
2022/11/17 08:28:57;;;;;;;;;;;;;;;10.10;100.00;98298.22;5044753;28;19917;-88
2022/11/17 08:31:22;;;;;;;;;;;;;;;10.11;100.00;98304.28;5050991;28;19925;-88
2022/11/17 08:33:48;;;;;;;;;;;;;;;10.10;100.00;98318.34;5067423;28;19920;-88
2022/11/17 08:36:13;;;;;;;;;;;;;;;10.05;100.00;98310.84;5049909;28;19940;-88
2022/11/17 08:38:39;;;;;;;;;;;;;;;10.04;100.00;98317.03;5041471;28;20003;-88
2022/11/17 08:41:05;;;;;;;;;;;;;;;10.04;100.00;98321.41;5046835;28;20001;-87
2022/11/17 08:43:31;;;;;;;;;;;;;;;10.04;100.00;98329.25;5056073;28;19924;-88
2022/11/17 08:45:56;;;;;;;;;;;;;;;10.03;100.00;98317.97;5054499;28;19948;-88
2022/11/17 08:48:21;;;;;;;;;;;;;;;10.03;100.00;98328.44;5047933;28;20209;-88
2022/11/17 08:50:47;;;;;;;;;;;;;;;10.04;100.00;98332.72;5053307;28;19920;-88
2022/11/17 08:53:13;;;;;;;;;;;;;;;10.03;100.00;98335.44;5059270;28;19944;-88
2022/11/17 08:55:38;;;;;;;;;;;;;;;10.03;100.00;98338.06;5059590;28;20191;-88
2022/11/17 08:58:04;;;;;;;;;;;;;;;10.03;100.00;98346.72;5069769;28;19921;-88
2022/11/17 09:00:29;;;;;;;;;;;;;;;10.01;100.00;98340.78;5047737;28;19921;-88
2022/11/17 09:02:55;;;;;;;;;;;;;;;10.01;100.00;98350.44;5041856;28;19920;-88
2022/11/17 09:05:20;;;;;;;;;;;;;;;9.98;100.00;98349.69;5058193;28;19932;-88
2022/11/17 09:07:45;;;;;;;;;;;;;;;10.00;100.00;98360.03;5053666;28;19925;-88
2022/11/17 09:10:11;;;;;;;;;;;;;;;9.98;100.00;98368.00;5041489;28;19913;-88
2022/11/17 09:12:36;;;;;;;;;;;;;;;9.99;100.00;98361.00;5059292;28;19912;-88
2022/11/17 09:15:02;;;;;;;;;;;;;;;9.98;100.00;98364.56;5059056;28;19942;-88
2022/11/17 09:17:27;;;;;;;;;;;;;;;9.96;100.00;98375.13;5059347;28;19916;-88
2022/11/17 09:19:52;;;;;;;;;;;;;;;9.95;100.00;98359.56;5059666;28;19948;-88
2022/11/17 09:22:18;;;;;;;;;;;;;;;9.95;100.00;98376.09;5058781;28;20007;-88
2022/11/17 09:24:44;;;;;;;;;;;;;;;9.95;100.00;98372.63;5057258;28;19987;-88
2022/11/17 09:27:09;;;;;;;;;;;;;;;9.94;100.00;98369.19;5058235;28;20253;-88
2022/11/17 09:29:34;;;;;;;;;;;;;;;9.95;100.00;98372.63;5059319;28;20204;-88
2022/11/17 09:31:59;;;;;;;;;;;;;;;9.95;100.00;98383.09;5059056;28;19919;-87
2022/11/17 09:34:25;;;;;;;;;;;;;;;9.95;100.00;98367.41;5074373;28;20156;-88
2022/11/17 09:36:50;;;;;;;;;;;;;;;9.93;100.00;98370.16;5062429;28;20240;-88
2022/11/17 09:39:16;;;;;;;;;;;;;;;9.94;100.00;98379.66;5053748;28;20264;-88
2022/11/17 09:41:42;;;;;;;;;;;;;;;9.93;100.00;98396.31;5057450;28;20224;-88
2022/11/17 09:44:17;;;;;;;;;;;;;;;9.94;100.00;98397.13;5058850;28;20230;-88
2022/11/17 09:46:45;;;;;;;;;;;;;;;9.95;100.00;98409.22;5074012;28;20101;-88
2022/11/17 09:49:13;;;;;;;;;;;;;;;9.96;100.00;98397.84;5058611;28;19916;-88
2022/11/17 09:51:40;;;;;;;;;;;;;;;9.95;100.00;98427.53;5058753;28;20108;-88
2022/11/17 09:54:12;;;;;;;;;;;;;;;9.95;100.00;98411.84;5058893;28;19908;-88
2022/11/17 09:56:39;;;;;;;;;;;;;;;9.95;100.00;98423.16;5058592;28;19955;-88
2022/11/17 09:59:04;;;;;;;;;;;;;;;9.94;100.00;98418.03;5059996;28;19916;-88
2022/11/17 10:01:30;;;;;;;;;;;;;;;9.93;100.00;98419.84;5038780;28;19913;-88
2022/11/17 10:03:58;;;;;;;;;;;;;;;9.93;100.00;98422.44;5038878;28;20185;-88
2022/11/17 10:06:27;;;;;;;;;;;;;;;9.92;100.00;98439.06;5057885;28;19921;-87
2022/11/17 10:08:59;;;;;;;;;;;;;;;9.92;100.00;98451.31;5054315;28;20204;-88
2022/11/17 10:11:36;;;;;;;;;;;;;;;9.93;100.00;98445.13;5053779;28;19959;-88
2022/11/17 10:14:02;;;;;;;;;;;;;;;9.92;100.00;98441.69;5038254;28;20228;-88
2022/11/17 10:16:27;;;;;;;;;;;;;;;9.92;100.00;98436.47;5053480;28;19917;-88
2022/11/17 10:18:52;;;;;;;;;;;;;;;9.93;100.00;98452.97;5037200;28;19925;-88
2022/11/17 10:21:18;;;;;;;;;;;;;;;9.92;100.00;98446.91;5038120;28;19917;-88
2022/11/17 10:23:48;;;;;;;;;;;;;;;9.93;100.00;98450.34;5055705;28;20114;-88
2022/11/17 10:26:14;;;;;;;;;;;;;;;9.93;100.00;98455.59;5056741;28;20459;-88
2022/11/17 10:28:40;;;;;;;;;;;;;;;9.93;100.00;98455.59;5057190;28;20444;-88
2022/11/17 10:31:13;;;;;;;;;;;;;;;9.93;100.00;98466.91;5056720;28;19928;-88
2022/11/17 10:33:43;;;;;;;;;;;;;;;9.94;100.00;98472.94;5057864;28;19916;-88
2022/11/17 10:36:17;;;;;;;;;;;;;;;9.94;100.00;98473.78;5052573;28;19924;-88
2022/11/17 10:38:44;;;;;;;;;;;;;;;9.93;100.00;98466.91;5051623;28;20000;-88
2022/11/17 10:41:14;;;;;;;;;;;;;;;9.92;100.00;98482.69;5049122;28;19920;-88
2022/11/17 10:43:52;;;;;;;;;;;;;;;9.91;100.00;98481.84;5054197;28;19917;-88
2022/11/17 10:46:17;;;;;;;;;;;;;;;9.90;100.00;98484.59;5056585;28;19908;-88
2022/11/17 10:48:59;;;;;;;;;;;;;;;9.89;100.00;98483.75;5057144;28;20211;-88
2022/11/17 10:51:31;;;;;;;;;;;;;;;9.86;100.00;98478.75;5055696;28;19917;-88
2022/11/17 10:54:05;;;;;;;;;;;;;;;9.86;100.00;98478.75;5056085;28;19999;-88
2022/11/17 10:56:33;;;;;;;;;;;;;;;9.87;100.00;98490.03;5072125;28;20323;-88
2022/11/17 10:59:02;;;;;;;;;;;;;;;9.84;100.00;98495.50;5059132;28;19909;-88
2022/11/17 11:01:40;;;;;;;;;;;;;;;9.82;100.00;98495.59;5064985;28;19944;-88
2022/11/17 11:04:24;;;;;;;;;;;;;;;9.80;100.00;98495.75;5049684;28;19921;-88
2022/11/17 11:07:04;;;;;;;;;;;;;;;9.80;100.00;98494.88;5042177;28;19967;-88
2022/11/17 11:09:30;;;;;;;;;;;;;;;9.80;100.00;98500.97;5055957;28;19916;-88
2022/11/17 11:11:58;;;;;;;;;;;;;;;9.80;100.00;98495.75;5054918;28;19909;-88
2022/11/17 11:14:35;;;;;;;;;;;;;;;9.79;100.00;98506.31;5055081;28;20220;-88
2022/11/17 11:17:08;;;;;;;;;;;;;;;9.79;100.00;98499.28;5042091;28;19979;-88
2022/11/17 11:19:33;;;;;;;;;;;;;;;9.79;100.00;98524.59;5053611;28;20177;-88
2022/11/17 11:22:01;;;;;;;;;;;;;;;9.80;100.00;98505.34;5055649;28;20188;-88
2022/11/17 11:24:27;;;;;;;;;;;;;;;9.80;100.00;98510.56;5056336;28;19916;-88
2022/11/17 11:27:01;;;;;;;;;;;;;;;9.80;100.00;98510.56;5055982;28;19950;-88
2022/11/17 11:29:49;;;;;;;;;;;;;;;9.82;100.00;98518.31;5054998;28;19939;-88
2022/11/17 11:32:18;;;;;;;;;;;;;;;9.80;100.00;98527.13;5049222;28;19983;-88
2022/11/17 11:34:43;;;;;;;;;;;;;;;9.82;100.00;98526.16;5052832;28;20145;-88
2022/11/17 11:37:13;;;;;;;;;;;;;;;9.82;100.00;98534.00;5054801;28;19940;-88
2022/11/17 11:39:48;;;;;;;;;;;;;;;9.82;100.00;98529.59;5056154;28;19938;-88
2022/11/17 11:42:32;;;;;;;;;;;;;;;9.82;100.00;98526.16;5071762;28;19917;-88
2022/11/17 11:44:57;;;;;;;;;;;;;;;9.82;100.00;98528.75;5054281;28;19916;-88
2022/11/17 11:47:55;;;;;;;;;;;;;;;9.82;100.00;98537.44;5053837;28;19945;-88
2022/11/17 11:50:23;;;;;;;;;;;;;;;9.82;100.00;98534.00;5032254;28;20238;-88
2022/11/17 11:53:08;;;;;;;;;;;;;;;9.83;100.00;98536.50;5055048;28;19940;-88
2022/11/17 11:55:35;;;;;;;;;;;;;;;9.83;100.00;98538.28;5053668;28;19923;-88
2022/11/17 11:58:09;;;;;;;;;;;;;;;9.84;100.00;98532.09;5054574;28;19915;-88
2022/11/17 12:00:35;;;;;;;;;;;;;;;9.84;100.00;98559.09;5055040;28;19959;-88
2022/11/17 12:03:03;;;;;;;;;;;;;;;9.84;100.00;98548.63;5055727;28;20124;-88
2022/11/17 12:05:36;;;;;;;;;;;;;;;9.86;100.00;98546.75;5054640;28;19971;-88
2022/11/17 12:08:04;;;;;;;;;;;;;;;9.85;100.00;98539.00;5046139;28;19928;-88
2022/11/17 12:10:34;;;;;;;;;;;;;;;9.84;100.00;98553.00;5058846;28;19924;-88
2022/11/17 12:13:00;;;;;;;;;;;;;;;9.86;100.00;98569.41;5042615;28;19955;-87
2022/11/17 12:15:26;;;;;;;;;;;;;;;9.87;100.00;98568.47;5057565;28;19917;-88
2022/11/17 12:17:51;;;;;;;;;;;;;;;9.86;100.00;98559.81;5063546;28;19952;-88
2022/11/17 12:20:35;;;;;;;;;;;;;;;9.84;100.00;98577.38;5045573;28;19924;-88
2022/11/17 12:23:03;;;;;;;;;;;;;;;9.84;100.00;98573.91;5047980;28;19917;-88
2022/11/17 12:25:30;;;;;;;;;;;;;;;9.84;100.00;98571.31;5071157;28;19916;-88
2022/11/17 12:27:55;;;;;;;;;;;;;;;9.84;100.00;98564.31;5054732;28;19932;-88
2022/11/17 12:30:29;;;;;;;;;;;;;;;9.85;100.00;98576.44;5038417;28;19924;-87
2022/11/17 12:32:56;;;;;;;;;;;;;;;9.86;100.00;98582.47;5070947;28;20100;-88
2022/11/17 12:35:35;;;;;;;;;;;;;;;9.86;100.00;98579.88;5036359;28;19925;-88
2022/11/17 12:38:12;;;;;;;;;;;;;;;9.86;100.00;98595.56;5037524;28;19924;-87
2022/11/17 12:40:38;;;;;;;;;;;;;;;9.86;100.00;98579.88;5051989;28;19916;-87
2022/11/17 12:43:15;;;;;;;;;;;;;;;9.84;100.00;98573.91;5052303;28;19962;-88
2022/11/17 12:45:53;;;;;;;;;;;;;;;9.84;100.00;98593.06;5051256;28;20100;-88
2022/11/17 12:48:18;;;;;;;;;;;;;;;9.86;100.00;98601.63;5068978;28;20227;-88
2022/11/17 12:50:47;;;;;;;;;;;;;;;9.85;100.00;98592.13;5054770;28;19909;-88
2022/11/17 12:53:18;;;;;;;;;;;;;;;9.83;100.00;98596.63;5054341;28;19908;-88
2022/11/17 12:55:52;;;;;;;;;;;;;;;9.83;100.00;98607.06;5053331;28;19924;-88
2022/11/17 12:58:24;;;;;;;;;;;;;;;9.83;100.00;98601.84;5050086;28;20171;-88
2022/11/17 13:01:08;;;;;;;;;;;;;;;9.83;100.00;98599.25;5061391;28;20078;-88
2022/11/17 13:03:44;;;;;;;;;;;;;;;9.83;100.00;98601.03;5056866;28;19917;-88
2022/11/17 13:06:11;;;;;;;;;;;;;;;9.81;100.00;98603.75;5055921;28;19921;-88
2022/11/17 13:08:37;;;;;;;;;;;;;;;9.79;100.00;98605.66;5074408;28;20147;-88
2022/11/17 13:11:20;;;;;;;;;;;;;;;9.78;100.00;98602.16;5058635;28;19917;-88
2022/11/17 13:13:45;;;;;;;;;;;;;;;9.78;100.00;98594.34;5074111;28;19928;-88
2022/11/17 13:16:18;;;;;;;;;;;;;;;9.77;100.00;98624.03;5074243;28;19912;-88
2022/11/17 13:18:44;;;;;;;;;;;;;;;9.76;100.00;98635.44;5059047;28;20083;-88
2022/11/17 13:21:35;;;;;;;;;;;;;;;9.74;100.00;98619.03;5057709;28;19951;-88